Ana Sayfa
METAR-TAF:

METAR-TAF

Havaalanları :

Easton, Maryland, Amerika Birleşik Devletleri

Enlem: 38-48N, Boylam: 076-04W, yükseklik: 22 m

Güncel hava durumu gözlemi

Rapor saat 02:50 UTC de 7 saat ve 45 dakika önce yapıldı.
Rüzgar kuzeybatıdan 10 kt
Sıcaklık 8°C
Nem 87%
Basınç 1021 hPa
Görüş mesafesi: 16.1 km
1300 ft yükseklikte parçalı çok bulutlu
2500 ft yükseklikte parçalı çok bulutlu
3300 ft yükseklikte çok bulutlu
hafif yağmur

METAR: KESN 110250Z 31010KT 10SM -RA BKN013 BKN025 OVC033 08/06 A3015

Saat: 05:35 (10:35 UTC)


TAF: eksik

4.000'den fazla havaalanı için hava durumu gözlemleri ve tahminleri (METAR ve TAF raporları).

Kullanılabilir istasyonlar harita üzerinde sarı ve kırmızı noktalarla gösterilir.

İstasyonun adını görmek için fareyi noktanın üzerinde gezdirin.

Sonrasında hava gözlem ve tahminlerini görmek için tıklayın.

Haritayı değiştirmek için: yaklaştırmak için siyah artı işaretli yeşil düğmeye ve uzaklaştırmak için de eksi işaretli düğmeye hızla tıklayın; bitişik haritalar için yeşil okları kullanın.


METAR-TAF: